Timeline UpdatesTrip UpdatesNews PostsPvt PostsTravel TipsAdmin PostsConv PostsFollowed PostsChat RequestsBlog PostsPNR Posts

Disclaimer
Search
 
 
Thu Aug 21, 2014 21:33:02 ISTHomeTrainsΣChainsAtlasPNRForumGalleryNewsFAQTripsMembersLoginFeedback
No Recent News for this Train
Other Trains in the News **new
Latest...
.
Thu May 01, 2014 (10:04AM)
⇐ Return Journey: Train# 11016

11015/Kushinagar Express

Oct 01 2013 (11:42AM)
Change Departure Station:
Change Arrival Station:
Post a Train Travel TipPost a Train Travel Tip **new
Post a Comment/Question/Picture/VideoPost a Comment/Question/Picture/Video
Pantry/Catering
✓ Pantry Car Avbl
✓ Catering Avbl
RSA - Rake Sharing
No RSA.
Rake/Coach Composition
SLR1-GEN1-GEN2-A1-B2-B1-S14-PC-S13-S12-S11-S10-S9-S8-S7-S6-S5-S4-S3-S2-S1-GEN3(from KYN)-SLR/LD; http://indiarailinfo.com/blog/post/841167
Loco
LTT-JHS: BSL-WAP-4 JHS-GKP: GD-WDM-3A Entry# 970759
News    PNR    Forum    Time-Table    Availability    Fare Chart    Map    Arr/Dep History    Trips    Gallery    ΣChains    X/O    Timeline    
Travel Time: 30h 50m    43 halts    Distance: 1615 km    Avg Speed: 52 km/hr
Type: Mail/Express
Zone: CR/Central
Departs @ 22:45 (Avg 9m late)
Platform# 2
SMTWTFS
Mumbai Lokmanya Tilak Terminus/LTT 
Arrives @ 05:35 +2 nights (Avg 1h 3m late)
Platform# 3
SMTWTFS
Basti/BST 

43 halts. 235 intermediate Stations between Mumbai Lokmanya Tilak Terminus and Basti

Show ALL intermediate Stations  Show Old Time-Table

#CodeStation NameX/OArrivesAvgDepartsAvgHaltPFDay#KmSpeedElevZoneAddress
1LTT»Mumbai Lokmanya Tilak Terminus (5)»  -22:45+9210.0587mCRMumbai, Maharashtra
2TNAThane (10)X  23:02+1623:05+153m7116.56110mCRThane (West) 400602, Maharashtra
3KYNKalyan Junction (8)X  23:25+2423:30+265m4136.76410mCRKalyan 421301, Maharashtra
4KSRAKasara (4)X  00:33+3300:35+392m12104.117290mCRDist. Thane 421602, Maharashtra
5IGPIgatpuri (4)X  01:25+1601:30+225m12118.556589mCRIgatpuri 422403, Maharashtra
6DVLDevlali (3)X  02:18+1902:20+252m12163.434561mCRDist. Nashik 422401, Maharashtra
7NKNasik Road (3)X  02:30+2202:35+225m22169.187563mCRNashik 422101, Maharashtra
8MMRManmad Junction (6)X  03:25+2703:30+285m22241.985580mCRManmad 423104, Maharashtra
9NGNNandgaon (3)X  03:48+3303:50+332m--2267.379476mCRNandgaon, Maharashtra
10CSNChalisgaon Junction (3)X  04:22+3404:24+352m--2309.493352mCRChalisgaon 424101, Maharashtra
11PCPachora Junction (4)X  04:53+3804:55+382m--2354.387264mCRPachora 424201, Maharashtra
12JLJalgaon Junction (4)X  05:28+4105:30+422m32402.058213mCRJalgaon 425001, Maharashtra
13BSLBhusaval Junction (8)X  05:55+4106:10+3915m62426.173208mCRBhusaval 425201, Maharashtra
14RVRaver (2)X  06:38+4706:40+492m--2460.467242mCRJalgaon, Maharashtra
15BAUBurhanpur (2)X  06:58+5007:00+502m22480.656269mCRBurhanpur, Madhya Pradesh
16NPNRNepanagar (2)  07:28+4307:30+442m--2506.826289mCRState Highway 27, Madhya Pradesh
17KNWKhandwa Junction (5)  09:10+1109:15+125m--2549.5114310mCRKhandwa, Madhya Pradesh
18KKNKhirkiya (2)X  09:55+2809:57+282m22625.676281mWCRSH 15, Madhya Pradesh
19HDHarda (3)  10:22+2810:24+282m--2657.161289mWCRHarda, Madhya Pradesh
20TBNTimarni (2)X  10:38+2810:40+292m--2671.249308mWCRTimarni, Madhya Pradesh
21ETItarsi Junction (7)X  11:55+1112:00+195m22732.960329mWCRItarsi 461111, Madhya Pradesh
22HBDHoshangabad (2)X  12:18+2712:20+282m12751.058308mWCRHoshangabad, Madhya Pradesh
23MDDPMandi Dip (1)  13:13+4713:15+482m12802.254 WCRMandideep, Madhya Pradesh
24HBJBhopal HabibGanj (5)X  13:33+4813:35+502m12818.419496mWCRHabibGanj, Madhya Pradesh
25BPLBhopal Junction (6)  13:55+4814:00+515m32824.685497mWCRBhopal, Madhya Pradesh
26BHSVidisha (3)  14:38+5914:40+1:012m12878.184 WCRVidisha, Madhya Pradesh
27BAQGanj Basoda (4)  15:08+1:0615:10+1:062m12917.530 WCRVidisha, Madhya Pradesh
28BINABina Junction (4)  16:40+2216:45+245m32963.273414mWCRJn Pt - KATNI/GUNA/ BPL/JHS, Madhya Pradesh
29LARLalitpur (3)  17:37+3417:39+342m321026.190373mNCRLalitpur, Uttar Pradesh
30BABBabina (3)X  18:22+4418:24+452m121090.937285mNCRBabina, Uttar Pradesh
31JHSJhansi Junction (7)O  19:05+3619:20+4515m421116.479259mNCRJhansi, Uttar Pradesh
32CGNChirgaon  19:44+1:0219:46+1:062m--21148.275192mNCRChirgaon, Uttar Pradesh
33AITAit Junction (2)X  20:32+1:1520:34+1:162m121205.843154mNCROrai(05162-252206), Uttar Pradesh
34ORAIOrai (3)XO  21:08+1:0321:10+1:062m--21230.468139mNCROrai(05162-252206), Uttar Pradesh
35KPIKalpi  21:39+1:0921:41+1:102m--21263.160114mNCRKalpi Orai(05162-252206), Uttar Pradesh
36PHNPokhrayan (2)X  21:56+1:1421:58+1:142m121278.227133mNCRPukhrayan, Uttar Pradesh
37BZMBhimsen (1)  23:35+2123:37+232m121322.626136mNCRKanpur, Uttar Pradesh
38CNBKanpur Central (10)X  00:10+2500:20+2510m731336.750128mNCRKANPUR-208 001, Uttar Pradesh
39ONUnnao Junction (5)X  00:41+3400:43+342m--31354.153129mNRUnnao, Uttar Pradesh
40LKOLucknow Charbagh (9)X  01:45+3101:55+3410m231408.740123mNR226004, Uttar Pradesh
41BBKBarabanki Junction (4)X  02:38+4402:40+442m--31437.263122mNRPin-225001, Uttar Pradesh
42GDGonda Junction (3)X  04:05+5504:10+575m231526.560110mNERGonda 271001, Uttar Pradesh
43MURMankapur Junction (5)  04:38+5904:40+592m131554.478104mNERDistrict Gonda, Uttar Pradesh
44BVBabhnan (2)X  05:03+1:0005:05+1:002m231584.262101mNERDistrict- Basti, Uttar Pradesh
45BST•Basti (4)•X  05:35+1:0305:40+1:025m331615.08190mNERBasti 272001, Uttar Pradesh
46KLDKhalilabad (3)X  06:02+5406:04+532m--31644.53186mNERKhalilabad- 272175, Uttar Pradesh
47GKPGorakhpur Junction (10)  07:10+34-431678.4-84mNERGorakhpur 273001, Uttar Pradesh
Scroll to Top
Scroll to Bottom